^^
Paulen-Weather Station Historical Data
Daily Summary for August 07, 2022 Units:  Metric    English   Both
Daily Weekly Monthly Yearly Custom
  High: Low: Average:
Temperature: 13 °C 13 °C 13 °C
Dew Point: 10 °C 9 °C 9.6 °C
Humidity: 81% 79% 80%
Wind Speed: 16km/h 6km/h 9km/h
Wind Gust: 11km/h - -
Wind- - WSW
Pressure: 1022.25 hPa 1021.91 hPa -
Precipitation: 0 mm    
Historical Graphs
 
 
Tabular Data for August 07, 2022
Time Temperature Dew Point Pressure Wind Wind Speed Wind Gust Humidity Rainfall Rate (Hourly) solar
00:04 13 °C 10 °C 1022.15 hPa W 8 km/h 7 km/h 81% 0 mm 0 W/m2
00:09 13 °C 10 °C 1022.11 hPa E 9 km/h 8 km/h 81% 0 mm 0 W/m2
00:14 13 °C 10 °C 1022.15 hPa WSW 9 km/h 8 km/h 80% 0 mm 0 W/m2
00:19 13 °C 10 °C 1022.25 hPa WSW 8 km/h 5 km/h 81% 0 mm 0 W/m2
00:24 13 °C 10 °C 1022.22 hPa WSW 10 km/h 7 km/h 80% 0 mm 0 W/m2
00:29 13 °C 10 °C 1022.22 hPa WSW 10 km/h 7 km/h 80% 0 mm 0 W/m2
00:34 13 °C 10 °C 1022.11 hPa WSW 7 km/h 6 km/h 80% 0 mm 0 W/m2
00:39 13 °C 10 °C 1022.11 hPa SW 8 km/h 6 km/h 80% 0 mm 0 W/m2
00:44 13 °C 10 °C 1022.11 hPa WSW 10 km/h 9 km/h 80% 0 mm 0 W/m2
00:49 13 °C 10 °C 1022.11 hPa SW 12 km/h 8 km/h 79% 0 mm 0 W/m2
00:54 13 °C 10 °C 1022.05 hPa W 11 km/h 9 km/h 79% 0 mm 0 W/m2
00:59 13 °C 10 °C 1022.08 hPa WSW 8 km/h 8 km/h 79% 0 mm 0 W/m2
01:04 13 °C 10 °C 1022.08 hPa WSW 16 km/h 11 km/h 79% 0 mm 0 W/m2
01:09 13 °C 10 °C 1021.98 hPa W 12 km/h 10 km/h 79% 0 mm 0 W/m2
01:14 13 °C 10 °C 1021.94 hPa W 9 km/h 7 km/h 79% 0 mm 0 W/m2
01:19 13 °C 10 °C 1021.94 hPa W 11 km/h 8 km/h 79% 0 mm 0 W/m2
01:24 13 °C 9 °C 1021.91 hPa W 8 km/h 5 km/h 79% 0 mm 0 W/m2
01:29 13 °C 9 °C 1021.98 hPa WSW 9 km/h 8 km/h 79% 0 mm 0 W/m2
01:34 13 °C 9 °C 1021.98 hPa WSW 9 km/h 8 km/h 79% 0 mm 0 W/m2
01:39 13 °C 9 °C 1021.94 hPa WSW 9 km/h 7 km/h 79% 0 mm 0 W/m2
01:44 13 °C 9 °C 1021.94 hPa W 8 km/h 5 km/h 79% 0 mm 0 W/m2
01:49 13 °C 9 °C 1021.98 hPa W 6 km/h 5 km/h 80% 0 mm 0 W/m2
01:54 13 °C 9 °C 1021.94 hPa W 7 km/h 5 km/h 80% 0 mm 0 W/m2
01:59 13 °C 9 °C 1021.91 hPa W 6 km/h 4 km/h 81% 0 mm 0 W/m2
02:04 13 °C 9 °C 1021.91 hPa WSW 6 km/h 5 km/h 81% 0 mm 0 W/m2
Compliments of Weather Underground - 2 mb